x

West Oregon - 275nm West Of Coos Bay, Or (46002) Wave Buoy

11:50pm - Fri 1st Aug 2014 All times are UTC.

  • Sig Wave height 3.9ft
  • Peak Period 6s
  • Average Period 5s
  • Wind
    16mph, 18mph gusts
  • Sea Temp 67°f
  • Air Temp 65°f
  • Sea Pressure 1022.1mb

More Historic Weather Station data

Upgrade to MSW Pro to gain access to the past 30 days of data for over 8000 Wavebouys and Weather Stations around the globe.

Join Pro

Comparision Forecast

View Surf forecast
   
Fri 08/01 11:50pm 4ft 6s 5s 16 18 mph 1022.1mb 67f 65f
10:50pm 4ft 6s 5s 16 20 mph 1022.3mb 67f 65f
9:50pm 4ft 5s 5s 16 20 mph 1022.6mb 67f 65f
8:50pm 4.5ft 5s 5s 16 18 mph 1022.7mb 67f 65f
7:50pm 3.5ft 6s 5s 16 20 mph 1022.9mb 67f 65f
6:50pm 4ft 6s 5s 16 18 mph 1022.8mb 66f 65f
5:50pm 3.5ft 6s 5s 16 18 mph 1023mb 66f 65f
4:50pm 3.5ft 6s 5s 16 18 mph 1022.9mb 66f 65f
3:50pm 3.5ft 13s 5s 13 18 mph 1022.7mb 66f 65f
2:50pm 3.5ft 16s 5s 16 18 mph 1022.6mb 66f 65f
1:50pm 3ft 6s 5s 13 18 mph 1022.6mb 67f 66f
12:50pm 3ft 6s 5s 11
mph
1022.7mb 67f 66f
11:50am 3.5ft 13s 5s 9 11 mph 1022.6mb 67f 66f
10:50am 3.5ft 6s 5s 11
mph
1022.7mb 67f 66f
9:50am 3.5ft 13s 5s 11 13 mph 1022.7mb 67f 66f
8:50am 3ft 6s 5s 11 13 mph 1022.9mb 67f 66f
7:50am 3ft 6s 5s 11 13 mph 1022.9mb 67f 66f
6:50am 3.5ft 13s 5s 11 13 mph 1022.8mb 67f 66f
5:50am 3.5ft 6s 5s 13 16 mph 1022.9mb 67f 67f
4:50am 3ft 14s 5s 11 13 mph 1022.9mb 67f 67f
3:50am 3ft 13s 5s 9 11 mph 1022.7mb 67f 67f
2:50am 3ft 14s 6s 11 13 mph 1022.6mb 68f 67f
1:50am 2.5ft 13s 6s 11 13 mph 1022.8mb 68f 67f
12:50am 3ft 12s 6s 9 11 mph 1022.9mb 68f 67f
Thu 07/31 11:50pm 3ft 13s 6s 9 11 mph 1023.1mb 68f 67f
10:50pm 3ft 6s 6s 9
mph
1023.6mb 68f 67f
9:50pm 2.5ft 13s 6s 7 9 mph 1023.9mb 68f 67f
8:50pm 3ft 13s 6s 7
mph
1024.2mb 68f 66f
7:50pm 3ft 13s 6s 7 9 mph 1024.4mb 68f 66f
6:50pm 3ft 13s 6s 9
mph
1024.2mb 67f 66f
5:50pm 3ft 6s 6s 9
mph
1024mb 67f 66f
4:50pm 3ft 14s 6s 9 11 mph 1023.9mb 67f 66f
3:50pm 2.5ft 14s 5s 9
mph
1023.8mb 67f 66f
2:50pm 2.5ft 14s 6s 9 11 mph 1023.5mb 66f 66f
1:50pm 2.5ft 14s 6s 11
mph
1023.1mb 67f 65f
12:50pm 3ft 14s 6s 11 13 mph 1022.9mb 67f 66f
11:50am 3ft 14s 6s 9 11 mph 1022.9mb 67f 66f
10:50am 3ft 14s 6s 9 11 mph 1023.3mb 67f 66f
9:50am 3ft 14s 6s 9 11 mph 1023.5mb 68f 66f
8:50am 2.5ft 6s 6s 9 11 mph 1023.6mb 68f 67f
7:50am 2.5ft 14s 6s 9 11 mph 1024mb 68f 67f
6:50am 3ft 14s 7s 9 11 mph 1023.9mb 69f 67f
5:50am 2.5ft 14s 7s 9 11 mph 1023.6mb 69f 67f
4:50am 2.5ft 14s 6s 9
mph
1023.6mb 69f 67f
3:50am 3ft 6s 6s 7 9 mph 1023.5mb 70f 68f
2:50am 3ft 14s 6s 7 9 mph 1023.2mb 70f 68f
1:50am 3ft 14s 6s 7 9 mph 1023.4mb 71f 68f
12:50am 3ft 14s 6s 4 7 mph 1023.6mb 71f 68f
Wed 07/30 11:50pm 3ft 14s 6s 4 7 mph 1023.8mb 72f 68f
10:50pm 3.5ft 14s 6s 2 4 mph 1024.1mb 71f 68f
9:50pm 3ft 6s 6s 2 4 mph 1024.2mb 70f 67f
8:50pm 3ft 14s 6s 4 7 mph 1024.2mb 69f 67f
7:50pm 3ft 15s 6s 4
mph
1024.3mb 68f 66f
6:50pm 3ft 14s 6s 4
mph
1024.4mb 67f 66f
5:50pm 3ft 14s 6s 4 7 mph 1024mb 67f 66f
4:50pm 3.5ft 14s 6s 4 7 mph 1023.9mb 66f 66f
3:50pm 3ft 14s 6s 7
mph
1023.7mb 66f 66f
2:50pm 3ft 7s 6s 7
mph
1023.4mb 66f 65f
1:50pm 3ft 14s 6s 4 7 mph 1023.2mb 66f 65f
12:50pm 3ft 14s 7s 4 7 mph 1023mb 66f 65f
11:50am 3ft 15s 6s 2 4 mph 1023.1mb 66f 65f
10:50am 3ft 7s 7s 2 4 mph 1023.4mb 66f 65f
9:50am 3ft 7s 6s 4
mph
1023.6mb 67f 66f
8:50am 3ft 8s 6s 4
mph
1023.9mb 67f 66f
7:50am 3ft 14s 7s 4
mph
1023.8mb 67f 66f
6:50am 3ft 14s 6s 7
mph
1023.7mb 67f 66f
5:50am 3ft 14s 6s 7 9 mph 1023.7mb 67f 67f
4:50am 3.5ft 15s 6s 7
mph
1023.6mb 68f 67f
3:50am 3.5ft 7s 6s 7
mph
1023.2mb 68f 67f
2:50am 3.5ft 7s 6s 7
mph
1023.3mb 68f 68f
1:50am 3.5ft 8s 6s 7 9 mph 1023.4mb 69f 68f
12:50am 3.5ft 8s 6s 4 7 mph 1023.6mb 69f 68f
Tue 07/29 11:50pm 3.5ft 7s 6s 4 7 mph 1023.8mb 69f 67f
10:50pm 4ft 15s 7s 4 7 mph 1023.9mb 68f 67f
9:50pm 3.5ft 8s 6s 7
mph
1024.1mb 68f 67f
8:50pm 3.5ft 8s 7s 4 7 mph 1024.4mb 68f 67f
7:50pm 3.5ft 7s 6s 7
mph
1024.5mb 68f 67f
6:50pm 4ft 8s 7s 4 7 mph 1024.6mb 67f 66f
5:50pm 3.5ft 14s 6s 2 4 mph 1024.1mb 66f 66f
4:50pm 3.5ft 15s 7s 4
mph
1024.1mb 66f 65f
3:50pm 3.5ft 8s 6s 2 4 mph 1023.9mb 65f 65f
2:50pm 3.5ft 6s 6s 4
mph
1023.6mb 65f 65f
1:50pm 3.5ft 6s 6s 4 7 mph 1023.4mb 65f 65f
12:50pm 3ft 15s 6s 7 9 mph 1023.1mb 65f 65f
11:50am 3.5ft 6s 6s 4 7 mph 1023.1mb 66f 65f
10:50am 3ft 6s 6s 7
mph
1023mb 66f 65f
9:50am 3.5ft 15s 6s 9
mph
1023mb 66f 65f
8:50am 3.5ft 6s 6s 7 9 mph 1023.2mb 66f 65f
7:50am 3.5ft 7s 6s 7 9 mph 1023.1mb 66f 66f
6:50am 3ft 15s 6s 7 9 mph 1023.2mb 66f 66f
5:50am 3.5ft 7s 6s 7 9 mph 1023.4mb 67f 66f
4:50am 3.5ft 7s 6s 4 7 mph 1023.4mb 67f 66f
3:50am 3.5ft 7s 6s 7
mph
1023.3mb 67f 67f
2:50am 3.5ft 8s 6s 4 7 mph 1023mb 67f 67f
1:50am 3.5ft 8s 6s 7
mph
1023.1mb 67f 67f